Time;durP1;ratioP1;P1;durP2;ratioP2;P2;SDS_P1;SDS_P2;PMS_P1;PMS_P2;Temp;Humidity;BMP_temperature;BMP_pressure;BME280_temperature;BME280_humidity;BME280_pressure;Samples;Min_cycle;Max_cycle;Signal;HPM_P1;HPM_P2
2023/08/06 00:00:20;;;;;;;3.15;2.63;;;;;;;19.18;100.00;64996.94;5071329;28;20199;-53
2023/08/06 00:02:45;;;;;;;3.45;2.60;;;;;;;19.28;100.00;65005.44;5071134;28;20213;-56
2023/08/06 00:05:11;;;;;;;4.55;2.50;;;;;;;19.46;100.00;65024.22;5071081;28;20239;-53
2023/08/06 00:07:36;;;;;;;3.97;2.47;;;;;;;19.68;100.00;65049.06;5071124;28;20232;-54
2023/08/06 00:10:01;;;;;;;4.78;2.85;;;;;;;19.47;100.00;65025.31;5071770;28;20682;-53
2023/08/06 00:12:27;;;;;;;6.82;3.45;;;;;;;19.83;100.00;65068.19;5071317;28;20220;-53
2023/08/06 00:14:53;;;;;;;5.22;3.00;;;;;;;19.84;100.00;65066.72;5071086;28;20201;-57
2023/08/06 00:17:19;;;;;;;5.07;2.40;;;;;;;19.40;100.00;65015.59;5071450;28;20672;-59
2023/08/06 00:19:45;;;;;;;3.85;2.45;;;;;;;19.26;100.00;65000.66;5070808;28;20201;-58
2023/08/06 00:22:10;;;;;;;3.08;2.35;;;;;;;19.40;100.00;65017.59;5071174;28;20247;-53
2023/08/06 00:24:36;;;;;;;4.15;2.50;;;;;;;19.68;100.00;65051.63;5052926;28;20585;-53
2023/08/06 00:27:02;;;;;;;5.03;2.90;;;;;;;20.04;100.00;65088.25;5052928;28;20215;-53
2023/08/06 00:29:28;;;;;;;4.15;2.47;;;;;;;20.07;100.00;65094.16;5071214;28;20328;-54
2023/08/06 00:31:54;;;;;;;4.03;2.40;;;;;;;19.91;100.00;65071.91;5071034;28;20240;-53
2023/08/06 00:34:19;;;;;;;4.70;2.83;;;;;;;19.93;100.00;65076.69;5070771;28;20204;-53
2023/08/06 00:36:45;;;;;;;4.03;2.33;;;;;;;20.12;100.00;65097.09;5070820;28;20259;-53
2023/08/06 00:39:11;;;;;;;6.28;2.67;;;;;;;20.20;100.00;65105.97;5070695;28;20188;-53
2023/08/06 00:41:36;;;;;;;3.67;2.70;;;;;;;20.08;100.00;65092.69;5070786;28;20602;-52
2023/08/06 00:44:02;;;;;;;4.53;3.03;;;;;;;20.06;100.00;65090.47;5070535;28;20204;-54
2023/08/06 00:46:28;;;;;;;3.35;2.65;;;;;;;20.07;100.00;65092.16;5070838;28;20690;-54
2023/08/06 00:48:55;;;;;;;4.10;2.78;;;;;;;20.10;100.00;65092.88;5070681;28;20203;-54
2023/08/06 00:51:22;;;;;;;4.32;2.58;;;;;;;20.05;100.00;65087.38;5070546;28;20243;-53
2023/08/06 00:53:50;;;;;;;4.40;3.10;;;;;;;20.09;100.00;65091.78;5070443;28;20196;-53
2023/08/06 00:56:16;;;;;;;4.95;3.10;;;;;;;20.16;100.00;65101.53;5070316;28;20220;-53
2023/08/06 00:58:42;;;;;;;5.10;3.55;;;;;;;19.82;100.00;65064.53;5070429;28;20193;-54
2023/08/06 01:01:07;;;;;;;5.18;3.35;;;;;;;19.78;100.00;65060.09;5076217;22;20263;-54
2023/08/06 01:03:33;;;;;;;3.47;3.10;;;;;;;19.59;100.00;65039.13;5070557;28;20204;-54
2023/08/06 01:05:59;;;;;;;5.80;3.47;;;;;;;19.58;100.00;65038.03;5069330;28;20213;-54
2023/08/06 01:08:46;;;;;;;4.78;3.50;;;;;;;19.70;100.00;65048.72;5052353;28;20752;-53
2023/08/06 01:11:54;;;;;;;5.22;3.75;;;;;;;19.86;100.00;65071.50;5070582;28;20226;-53
2023/08/06 01:14:30;;;;;;;5.35;3.80;;;;;;;20.17;100.00;65104.63;5070473;28;20247;-56
2023/08/06 01:16:58;;;;;;;3.80;3.40;;;;;;;19.79;100.00;65063.78;5070603;28;20216;-53
2023/08/06 01:19:24;;;;;;;4.40;3.33;;;;;;;19.37;100.00;65011.72;5070201;28;20173;-53
2023/08/06 01:21:49;;;;;;;5.13;3.78;;;;;;;19.31;100.00;65010.72;5052174;28;20224;-57
2023/08/06 01:24:15;;;;;;;4.45;4.03;;;;;;;19.29;100.00;65006.53;5070169;28;20200;-54
2023/08/06 01:27:32;;;;;;;4.90;3.33;;;;;;;19.44;100.00;65022.56;5070259;28;20361;-54
2023/08/06 01:30:07;;;;;;;4.90;3.85;;;;;;;19.48;100.00;65024.41;4988733;28;20219;-54
2023/08/06 01:32:35;;;;;;;5.25;3.30;;;;;;;19.48;100.00;65023.88;5070659;28;20216;-54
2023/08/06 01:35:03;;;;;;;3.97;3.58;;;;;;;19.36;100.00;65011.16;5073900;28;20224;-53
2023/08/06 01:37:29;;;;;;;3.47;3.17;;;;;;;19.45;100.00;65023.69;5055948;28;20718;-57
2023/08/06 01:39:55;;;;;;;3.92;3.38;;;;;;;19.45;100.00;65023.69;5073382;28;20222;-54
2023/08/06 01:42:20;;;;;;;5.43;3.50;;;;;;;19.32;100.00;65011.84;5073731;28;20212;-53
2023/08/06 01:44:46;;;;;;;3.67;2.85;;;;;;;19.16;100.00;64992.19;5073357;28;20197;-53
2023/08/06 01:47:12;;;;;;;4.20;3.40;;;;;;;19.11;100.00;64983.53;5072412;28;20227;-54
2023/08/06 01:49:38;;;;;;;4.28;3.72;;;;;;;19.05;100.00;64982.03;5073422;28;20262;-53
2023/08/06 01:52:04;;;;;;;3.97;3.40;;;;;;;19.02;100.00;64976.75;5055339;28;20213;-53
2023/08/06 01:54:29;;;;;;;3.90;3.40;;;;;;;19.18;100.00;64994.41;5073118;28;20201;-53
2023/08/06 01:56:55;;;;;;;5.10;3.88;;;;;;;19.14;100.00;64992.53;5073414;28;20220;-53
2023/08/06 01:59:21;;;;;;;3.75;3.40;;;;;;;19.08;100.00;64985.91;5073194;28;20249;-53
2023/08/06 02:01:47;;;;;;;3.70;2.97;;;;;;;19.02;100.00;64976.19;5073295;28;20558;-53
2023/08/06 02:04:12;;;;;;;5.35;3.70;;;;;;;18.99;100.00;64975.41;5073544;28;20193;-53
2023/08/06 02:06:38;;;;;;;5.85;3.83;;;;;;;19.00;100.00;64974.53;5073030;28;20547;-53
2023/08/06 02:09:04;;;;;;;6.63;4.25;;;;;;;18.86;100.00;64959.09;5072387;28;20208;-53
2023/08/06 02:11:29;;;;;;;5.55;4.00;;;;;;;18.82;100.00;64957.22;5072981;28;20212;-53
2023/08/06 02:13:55;;;;;;;6.95;3.72;;;;;;;18.76;100.00;64944.94;5073030;28;20205;-54
2023/08/06 02:16:20;;;;;;;7.15;3.80;;;;;;;18.80;100.00;64955.00;5072975;28;20563;-53
2023/08/06 02:18:46;;;;;;;6.55;3.83;;;;;;;18.82;100.00;64951.56;5073049;28;20575;-53
2023/08/06 02:21:11;;;;;;;4.32;3.83;;;;;;;18.80;100.00;64954.47;5073055;28;20208;-52
2023/08/06 02:23:37;;;;;;;8.93;4.32;;;;;;;18.72;100.00;64943.06;5073379;28;20338;-52
2023/08/06 02:26:04;;;;;;;6.40;4.38;;;;;;;18.66;100.00;64937.00;5073136;28;20212;-52
2023/08/06 02:28:30;;;;;;;6.45;4.28;;;;;;;18.63;100.00;64933.69;5072780;28;20207;-51
2023/08/06 02:30:56;;;;;;;6.90;3.90;;;;;;;18.56;100.00;64925.44;5072445;28;20205;-52
2023/08/06 02:33:22;;;;;;;5.90;4.05;;;;;;;18.43;100.00;64912.19;5072689;28;20216;-52
2023/08/06 02:35:47;;;;;;;4.55;4.13;;;;;;;18.51;100.00;64920.47;5054686;28;20308;-52
2023/08/06 02:38:13;;;;;;;5.45;3.95;;;;;;;18.87;100.00;64957.63;5072848;28;20223;-52
2023/08/06 02:40:45;;;;;;;4.75;3.42;;;;;;;18.86;100.00;64961.06;5072629;28;20691;-55
2023/08/06 02:43:11;;;;;;;3.28;2.97;;;;;;;18.81;100.00;64950.44;5072497;28;20212;-52
2023/08/06 02:45:36;;;;;;;4.40;3.38;;;;;;;19.02;100.00;64978.72;5072597;28;20204;-52
2023/08/06 02:48:02;;;;;;;3.92;3.40;;;;;;;18.86;100.00;64958.53;5072422;28;20289;-53
2023/08/06 02:50:28;;;;;;;4.85;3.33;;;;;;;18.83;100.00;64957.75;5072407;28;20197;-54
2023/08/06 02:52:53;;;;;;;5.18;3.28;;;;;;;18.86;100.00;64963.63;5072792;28;20580;-52
2023/08/06 02:55:18;;;;;;;4.18;3.55;;;;;;;18.91;100.00;64962.03;5072777;28;20673;-52
2023/08/06 02:57:44;;;;;;;7.15;3.55;;;;;;;19.01;100.00;64978.19;5072140;28;20244;-52
2023/08/06 03:00:11;;;;;;;3.40;3.10;;;;;;;18.99;100.00;64970.84;5072309;28;20228;-52
2023/08/06 03:02:37;;;;;;;5.78;3.42;;;;;;;19.38;100.00;65018.50;5072142;28;20810;-57
2023/08/06 03:05:03;;;;;;;4.25;3.35;;;;;;;19.73;100.00;65054.59;5072756;28;20283;-51
2023/08/06 03:07:29;;;;;;;5.85;3.58;;;;;;;19.74;100.00;65055.69;5072094;28;20274;-51
2023/08/06 03:09:54;;;;;;;7.47;3.70;;;;;;;19.70;100.00;65051.28;5072127;28;20197;-52
2023/08/06 03:12:20;;;;;;;5.60;3.75;;;;;;;19.26;100.00;65005.78;5072582;28;20219;-52
2023/08/06 03:14:46;;;;;;;4.22;3.45;;;;;;;19.27;100.00;65006.31;5072248;28;20201;-55
2023/08/06 03:17:11;;;;;;;4.40;3.20;;;;;;;19.59;100.00;65036.56;5072144;28;20686;-52
2023/08/06 03:19:37;;;;;;;3.28;2.97;;;;;;;19.52;100.00;65031.38;5072055;28;20209;-51
2023/08/06 03:22:02;;;;;;;6.63;3.42;;;;;;;19.57;100.00;65036.94;5071877;28;20205;-52
2023/08/06 03:24:28;;;;;;;6.10;2.90;;;;;;;19.14;100.00;64989.41;5071933;28;20677;-53
2023/08/06 03:26:53;;;;;;;4.68;3.17;;;;;;;18.91;100.00;64964.59;5071805;28;20212;-56
2023/08/06 03:29:18;;;;;;;4.15;3.30;;;;;;;19.10;100.00;64985.00;5071819;28;20754;-53
2023/08/06 03:31:44;;;;;;;3.90;3.53;;;;;;;19.14;100.00;64992.53;5072056;28;20217;-51
2023/08/06 03:34:09;;;;;;;4.20;2.92;;;;;;;19.09;100.00;64983.91;5072331;28;20280;-53
2023/08/06 03:36:35;;;;;;;4.10;3.17;;;;;;;19.24;100.00;65003.00;5071540;28;20217;-52
2023/08/06 03:39:01;;;;;;;5.50;3.30;;;;;;;19.36;100.00;65013.72;5071677;28;20693;-51
2023/08/06 03:41:26;;;;;;;4.03;3.25;;;;;;;19.11;100.00;64988.66;5053764;28;20212;-52
2023/08/06 03:43:51;;;;;;;4.60;3.25;;;;;;;19.08;100.00;64983.34;5071820;28;20205;-51
2023/08/06 03:46:17;;;;;;;4.40;3.38;;;;;;;19.54;100.00;65035.59;5071551;28;20204;-53
2023/08/06 03:48:42;;;;;;;5.18;4.05;;;;;;;19.40;100.00;65020.69;5053426;28;20208;-52
2023/08/06 03:51:07;;;;;;;4.22;3.53;;;;;;;19.25;100.00;65001.56;5071606;28;20295;-51
2023/08/06 03:53:33;;;;;;;5.47;3.58;;;;;;;19.18;100.00;64996.41;5071149;28;20262;-51
2023/08/06 03:56:00;;;;;;;3.70;3.40;;;;;;;19.18;100.00;64996.41;5071329;28;20294;-51
2023/08/06 03:58:26;;;;;;;5.25;3.55;;;;;;;19.25;100.00;65004.09;5071309;28;20239;-51
2023/08/06 04:01:02;;;;;;;6.68;3.80;;;;;;;19.59;100.00;65038.56;5071267;28;20631;-51
2023/08/06 04:03:28;;;;;;;4.32;3.30;;;;;;;19.58;100.00;65040.56;5071750;28;20208;-52
2023/08/06 04:05:54;;;;;;;4.20;3.20;;;;;;;19.42;100.00;65020.34;5071169;28;20203;-53
2023/08/06 04:08:19;;;;;;;6.72;3.17;;;;;;;19.38;100.00;65015.94;5071215;28;20198;-52
2023/08/06 04:10:45;;;;;;;6.10;3.30;;;;;;;19.42;100.00;65022.34;5053142;28;20211;-52
2023/08/06 04:13:10;;;;;;;5.13;3.08;;;;;;;19.56;100.00;65035.25;5071106;28;20337;-52
2023/08/06 04:15:36;;;;;;;4.38;3.35;;;;;;;19.49;100.00;65027.53;5052932;28;20256;-52
2023/08/06 04:18:01;;;;;;;4.90;3.28;;;;;;;19.31;100.00;65008.19;5070963;28;20678;-52
2023/08/06 04:20:27;;;;;;;4.65;3.30;;;;;;;19.22;100.00;64998.25;5070764;28;20203;-57
2023/08/06 04:22:54;;;;;;;4.18;3.40;;;;;;;19.48;100.00;65029.53;5070895;28;20219;-51
2023/08/06 04:25:20;;;;;;;5.25;3.60;;;;;;;19.84;100.00;65069.28;5071210;28;20250;-51
2023/08/06 04:27:49;;;;;;;3.55;2.80;;;;;;;19.82;100.00;65063.97;5070843;28;20200;-51
2023/08/06 04:30:15;;;;;;;3.50;3.10;;;;;;;19.48;100.00;65024.41;5070821;28;20200;-55
2023/08/06 04:32:41;;;;;;;3.15;2.78;;;;;;;19.32;100.00;65009.28;5071154;28;20782;-51
2023/08/06 04:35:07;;;;;;;4.07;3.55;;;;;;;19.27;100.00;65003.75;5070569;28;20209;-52
2023/08/06 04:37:32;;;;;;;3.50;2.88;;;;;;;19.25;100.00;65007.22;5071380;28;20362;-52
2023/08/06 04:39:58;;;;;;;8.20;4.05;;;;;;;19.33;100.00;65012.41;5070686;28;20280;-51
2023/08/06 04:42:24;;;;;;;5.20;3.85;;;;;;;19.22;100.00;64998.25;5070603;28;20212;-50
2023/08/06 04:44:50;;;;;;;4.30;3.42;;;;;;;19.17;100.00;64993.28;5070979;28;20199;-51
2023/08/06 04:47:15;;;;;;;5.32;3.40;;;;;;;19.15;100.00;64991.06;5052632;28;20208;-52
2023/08/06 04:49:41;;;;;;;3.85;3.03;;;;;;;19.18;100.00;64993.84;5070578;28;20713;-52
2023/08/06 04:52:06;;;;;;;3.65;3.35;;;;;;;19.21;100.00;64997.13;5070811;28;20262;-52
2023/08/06 04:54:32;;;;;;;3.60;3.22;;;;;;;19.08;100.00;64982.81;5070909;28;20635;-52
2023/08/06 04:56:57;;;;;;;5.85;3.90;;;;;;;19.20;100.00;64996.59;5070714;28;20691;-53
2023/08/06 04:59:22;;;;;;;4.35;3.42;;;;;;;19.30;100.00;65007.09;5070501;28;20188;-52
2023/08/06 05:01:48;;;;;;;5.47;4.00;;;;;;;19.40;100.00;65018.16;5070621;28;20208;-51
2023/08/06 05:04:13;;;;;;;4.53;3.50;;;;;;;19.63;100.00;65041.00;5070888;28;20212;-52
2023/08/06 05:06:40;;;;;;;3.95;3.58;;;;;;;19.62;100.00;65042.44;5069389;28;20690;-52
2023/08/06 05:09:06;;;;;;;4.68;3.78;;;;;;;19.74;100.00;65058.25;5052351;28;20239;-52
2023/08/06 05:11:32;;;;;;;3.65;3.35;;;;;;;19.93;100.00;65073.56;5070401;28;20212;-52
2023/08/06 05:13:57;;;;;;;5.30;3.78;;;;;;;19.78;100.00;65060.09;5070449;28;20262;-52
2023/08/06 05:16:23;;;;;;;4.88;3.42;;;;;;;19.88;100.00;65073.16;5070114;28;20742;-52
2023/08/06 05:18:49;;;;;;;3.88;3.50;;;;;;;20.00;100.00;65083.84;5070365;28;20295;-52
2023/08/06 05:21:16;;;;;;;4.90;4.30;;;;;;;19.74;100.00;65055.69;5070206;28;20245;-52
2023/08/06 05:23:42;;;;;;;4.68;4.28;;;;;;;19.53;100.00;65032.50;5070403;28;20204;-53
2023/08/06 05:26:07;;;;;;;5.30;4.32;;;;;;;19.63;100.00;65043.56;5070195;28;20204;-52
2023/08/06 05:28:33;;;;;;;6.40;4.57;;;;;;;19.63;100.00;65041.00;5070052;28;20208;-53
2023/08/06 05:31:02;;;;;;;4.32;3.90;;;;;;;19.69;100.00;65050.19;5070030;28;20562;-53
2023/08/06 05:33:27;;;;;;;4.55;4.07;;;;;;;20.03;100.00;65087.72;5052257;28;20282;-53
2023/08/06 05:35:53;;;;;;;4.05;3.55;;;;;;;20.35;100.00;65125.09;5069763;28;20683;-51
2023/08/06 05:38:18;;;;;;;4.72;3.78;;;;;;;20.46;100.00;65134.16;5070158;28;20216;-51
2023/08/06 05:40:44;;;;;;;4.10;3.65;;;;;;;20.65;100.00;65152.56;5069694;28;20288;-51
2023/08/06 05:43:09;;;;;;;5.15;4.50;;;;;;;20.66;100.00;65156.25;5070087;28;20205;-51
2023/08/06 05:45:35;;;;;;;7.07;5.43;;;;;;;20.73;100.00;65163.97;5069853;28;20220;-52
2023/08/06 05:48:00;;;;;;;8.05;5.75;;;;;;;20.61;100.00;65151.28;5069846;28;20660;-52
2023/08/06 05:50:26;;;;;;;7.43;6.53;;;;;;;20.80;100.00;65171.72;5051740;28;20200;-52
2023/08/06 05:52:51;;;;;;;6.90;5.88;;;;;;;21.26;100.00;65220.03;5070210;28;20216;-52
2023/08/06 05:55:17;;;;;;;10.48;6.93;;;;;;;21.37;100.00;65232.19;5069639;28;20225;-52
2023/08/06 05:57:42;;;;;;;10.13;8.05;;;;;;;21.14;100.00;65209.34;5069761;28;20219;-51
2023/08/06 06:00:08;;;;;;;8.43;7.50;;;;;;;21.02;100.00;65196.06;5051614;28;20311;-53
2023/08/06 06:02:34;;;;;;;8.70;7.38;;;;;;;20.83;100.00;65172.47;5069424;28;20215;-53
2023/08/06 06:04:59;;;;;;;6.18;4.70;;;;;;;20.62;100.00;65149.81;5069603;28;20646;-52
2023/08/06 06:07:24;;;;;;;5.03;4.28;;;;;;;20.43;100.00;65128.25;5069800;28;20201;-52
2023/08/06 06:09:50;;;;;;;4.32;3.88;;;;;;;20.31;100.00;65115.00;5069591;28;20694;-53
2023/08/06 06:12:15;;;;;;;4.47;4.03;;;;;;;20.45;100.00;65133.03;5069605;28;20209;-53
2023/08/06 06:14:41;;;;;;;3.80;3.05;;;;;;;20.32;100.00;65121.25;5069786;28;20208;-52
2023/08/06 06:17:06;;;;;;;3.60;2.58;;;;;;;20.40;100.00;65125.50;5070606;28;20560;-52
2023/08/06 06:19:32;;;;;;;3.72;3.28;;;;;;;20.54;100.00;65143.00;5072747;28;20304;-52
2023/08/06 06:21:58;;;;;;;3.38;3.08;;;;;;;20.59;100.00;65149.06;5072670;28;20236;-52
2023/08/06 06:24:24;;;;;;;3.70;3.17;;;;;;;20.88;100.00;65180.56;5072673;28;20763;-53
2023/08/06 06:26:49;;;;;;;3.50;3.20;;;;;;;20.79;100.00;65168.03;5072643;28;20216;-51
2023/08/06 06:29:15;;;;;;;3.72;3.10;;;;;;;20.72;100.00;65166.00;5072784;28;20200;-52
2023/08/06 06:31:40;;;;;;;3.42;2.50;;;;;;;20.94;100.00;65184.63;5072933;28;20678;-53
2023/08/06 06:34:06;;;;;;;2.90;2.70;;;;;;;20.85;100.00;65180.38;5073126;28;20330;-53
2023/08/06 06:36:31;;;;;;;5.10;3.08;;;;;;;21.21;100.00;65213.97;5072724;28;20311;-53
2023/08/06 06:38:57;;;;;;;8.95;3.75;;;;;;;21.58;100.00;65255.44;5072510;28;20177;-54
2023/08/06 06:41:23;;;;;;;2.83;2.60;;;;;;;21.72;100.00;65273.50;5072547;28;20201;-54
2023/08/06 06:43:49;;;;;;;5.03;3.15;;;;;;;21.58;100.00;65257.44;5054531;28;20232;-53
2023/08/06 06:46:14;;;;;;;2.72;2.50;;;;;;;21.87;100.00;65286.44;5079507;22;21362;-51
2023/08/06 06:48:39;;;;;;;4.40;2.72;;;;;;;22.08;100.00;65307.13;5072747;28;20205;-50
2023/08/06 06:51:05;;;;;;;3.75;2.60;;;;;;;22.33;100.00;65339.91;5072106;28;20204;-52
2023/08/06 06:53:31;;;;;;;6.60;3.22;;;;;;;22.51;100.00;65360.38;5072406;28;20239;-52
2023/08/06 06:56:02;;;;;;;2.95;2.30;;;;;;;22.01;100.00;65301.91;5072152;28;20705;-51
2023/08/06 06:58:28;;;;;;;2.28;2.08;;;;;;;22.07;100.00;65308.56;5072406;28;20289;-52
2023/08/06 07:00:53;;;;;;;5.45;3.20;;;;;;;21.59;100.00;65256.00;5054220;28;20197;-52
2023/08/06 07:03:20;;;;;;;5.35;2.45;;;;;;;21.59;100.00;65256.00;5072178;28;20651;-52
2023/08/06 07:05:46;;;;;;;4.13;2.25;;;;;;;21.45;100.00;65241.03;5072526;28;20250;-53
2023/08/06 07:08:12;;;;;;;2.85;2.65;;;;;;;21.31;100.00;65225.56;5041431;23;20229;-51
2023/08/06 07:10:41;;;;;;;2.80;2.47;;;;;;;21.16;100.00;65208.44;5051984;28;20194;-51
2023/08/06 07:13:07;;;;;;;3.28;3.00;;;;;;;21.20;100.00;65213.41;5032015;28;20205;-51
2023/08/06 07:15:33;;;;;;;3.88;3.50;;;;;;;21.34;100.00;65228.34;5032170;28;20693;-52
2023/08/06 07:17:58;;;;;;;4.13;3.47;;;;;;;21.13;100.00;65205.13;5032058;28;20288;-52
2023/08/06 07:20:24;;;;;;;4.53;3.60;;;;;;;21.43;100.00;65238.84;5032027;28;20201;-52
2023/08/06 07:22:50;;;;;;;4.75;3.28;;;;;;;21.72;100.00;65270.91;5032365;28;20561;-51
2023/08/06 07:25:16;;;;;;;3.70;3.05;;;;;;;21.65;100.00;65263.16;5031956;28;20194;-51
2023/08/06 07:27:42;;;;;;;4.57;3.13;;;;;;;21.66;99.21;65264.28;5031623;28;20241;-52
2023/08/06 07:30:08;;;;;;;5.68;3.88;;;;;;;21.74;99.83;65270.56;5030809;28;20264;-52
2023/08/06 07:32:34;;;;;;;5.07;3.30;;;;;;;21.74;97.62;65275.69;5031523;28;20700;-50
2023/08/06 07:35:00;;;;;;;7.38;3.60;;;;;;;21.77;98.14;65276.44;5032129;28;20194;-51
2023/08/06 07:37:30;;;;;;;4.40;3.30;;;;;;;21.77;94.63;65278.47;5031592;28;20292;-51
2023/08/06 07:39:56;;;;;;;4.30;2.80;;;;;;;21.98;90.92;65298.63;5013946;28;20232;-54
2023/08/06 07:42:22;;;;;;;3.47;2.95;;;;;;;21.91;91.21;65293.97;5031853;28;20214;-52
2023/08/06 07:44:52;;;;;;;2.97;2.75;;;;;;;22.08;88.97;65312.25;5031904;28;20253;-52
2023/08/06 07:47:18;;;;;;;3.15;2.90;;;;;;;21.98;90.43;65301.19;5031870;28;20221;-52
2023/08/06 07:49:44;;;;;;;3.05;2.75;;;;;;;22.04;90.77;65305.78;5013749;28;20246;-52
2023/08/06 07:52:09;;;;;;;3.60;2.80;;;;;;;22.16;88.22;65321.09;5031696;28;20214;-52
2023/08/06 07:54:35;;;;;;;3.45;3.13;;;;;;;21.98;88.44;65299.16;5031786;28;20194;-52
2023/08/06 07:57:00;;;;;;;4.43;2.95;;;;;;;22.33;87.93;65337.91;5031165;28;20549;-51
2023/08/06 07:59:26;;;;;;;4.05;3.25;;;;;;;22.54;86.95;65363.69;5031391;28;20208;-50
2023/08/06 08:01:51;;;;;;;3.58;2.90;;;;;;;22.37;84.27;65344.34;5013371;28;20222;-51
2023/08/06 08:04:16;;;;;;;3.13;2.80;;;;;;;22.30;83.99;65334.03;5031240;28;20205;-51
2023/08/06 08:06:42;;;;;;;4.93;3.05;;;;;;;22.31;82.77;65335.13;5031689;28;20216;-52
2023/08/06 08:09:07;;;;;;;9.45;5.53;;;;;;;22.58;84.44;65365.03;5031160;28;20256;-51
2023/08/06 08:11:33;;;;;;;6.40;4.15;;;;;;;22.77;84.15;65388.09;5031174;28;20749;-52
2023/08/06 08:13:58;;;;;;;6.65;4.25;;;;;;;22.87;84.80;65396.59;5031140;28;20239;-51
2023/08/06 08:16:23;;;;;;;3.47;2.80;;;;;;;23.16;82.45;65429.28;5031074;28;20222;-51
2023/08/06 08:18:49;;;;;;;3.38;3.00;;;;;;;23.02;81.93;65416.34;5031326;28;20205;-52
2023/08/06 08:21:15;;;;;;;2.92;2.63;;;;;;;23.09;81.73;65418.38;5031166;28;20735;-52
2023/08/06 08:23:42;;;;;;;4.68;3.08;;;;;;;22.91;84.92;65401.00;5031400;28;20212;-51
2023/08/06 08:26:07;;;;;;;4.70;2.70;;;;;;;22.63;85.46;65370.00;5013180;28;20206;-55
2023/08/06 08:28:33;;;;;;;7.95;3.78;;;;;;;22.77;89.23;65385.50;5030970;28;20221;-50
2023/08/06 08:30:59;;;;;;;3.40;3.10;;;;;;;22.76;80.81;65387.53;5030978;28;20233;-51
2023/08/06 08:33:24;;;;;;;3.05;2.72;;;;;;;22.87;79.33;65397.16;5030786;28;20578;-51
2023/08/06 08:35:50;;;;;;;3.92;3.35;;;;;;;23.03;78.27;65414.88;5012907;28;20376;-50
2023/08/06 08:38:16;;;;;;;3.92;3.05;;;;;;;23.12;78.03;65424.84;5030904;28;20198;-51
2023/08/06 08:40:53;;;;;;;3.67;3.38;;;;;;;23.11;76.78;65423.72;5030337;28;20280;-51
2023/08/06 08:43:23;;;;;;;3.38;3.08;;;;;;;23.08;74.33;65419.84;5030915;28;20178;-51
2023/08/06 08:45:55;;;;;;;4.00;2.80;;;;;;;23.12;74.01;65424.84;5030625;28;20292;-52
2023/08/06 08:48:22;;;;;;;3.78;3.45;;;;;;;22.89;76.93;65399.38;5030750;28;20209;-51
2023/08/06 08:50:49;;;;;;;4.28;2.80;;;;;;;22.84;79.58;65393.84;5030699;28;20624;-52
2023/08/06 08:53:16;;;;;;;3.42;3.13;;;;;;;22.92;79.08;65402.13;5031016;28;20201;-53
2023/08/06 08:55:46;;;;;;;4.22;3.55;;;;;;;22.99;79.81;65410.44;5012821;28;20271;-51
2023/08/06 08:58:13;;;;;;;3.53;3.22;;;;;;;22.96;79.28;65409.69;5030570;28;20205;-53
2023/08/06 09:00:42;;;;;;;3.55;3.00;;;;;;;23.12;80.11;65427.41;5030434;28;20198;-51
2023/08/06 09:03:08;;;;;;;3.58;3.10;;;;;;;23.09;79.37;65421.50;5013263;28;20688;-51
2023/08/06 09:05:35;;;;;;;5.00;3.55;;;;;;;23.21;80.98;65432.22;5030745;28;20194;-54
2023/08/06 09:08:03;;;;;;;4.60;3.20;;;;;;;23.35;79.50;65447.22;5030305;28;20801;-52
2023/08/06 09:10:29;;;;;;;3.63;2.58;;;;;;;23.52;79.31;65468.06;5030496;28;20252;-52
2023/08/06 09:12:56;;;;;;;3.15;2.85;;;;;;;23.63;76.22;65482.84;5030599;28;20623;-52
2023/08/06 09:15:25;;;;;;;4.60;3.00;;;;;;;23.72;74.60;65490.78;5030391;28;20222;-51
2023/08/06 09:17:55;;;;;;;6.47;3.50;;;;;;;23.97;74.77;65518.50;5030162;28;20304;-52
2023/08/06 09:20:20;;;;;;;3.58;3.05;;;;;;;23.58;75.25;65472.13;5030320;28;20276;-53
2023/08/06 09:22:48;;;;;;;3.38;3.10;;;;;;;23.78;76.47;65496.88;5030545;28;20305;-51
2023/08/06 09:25:24;;;;;;;6.10;5.47;;;;;;;24.21;77.28;65542.00;5030640;28;20625;-52
2023/08/06 09:27:50;;;;;;;4.50;2.88;;;;;;;24.38;73.70;65562.88;5030120;28;20210;-52
2023/08/06 09:30:31;;;;;;;12.85;9.90;;;;;;;24.93;74.83;65623.91;5012253;28;20669;-52
2023/08/06 09:32:56;;;;;;;3.25;2.53;;;;;;;24.68;68.96;65596.72;5030156;28;20209;-52
2023/08/06 09:35:21;;;;;;;7.47;2.97;;;;;;;24.40;70.90;65565.63;5029974;28;20602;-51
2023/08/06 09:37:47;;;;;;;3.15;2.85;;;;;;;24.21;72.94;65546.59;5030305;28;20210;-52
2023/08/06 09:40:30;;;;;;;3.60;3.17;;;;;;;24.11;72.68;65530.91;5029927;28;20198;-51
2023/08/06 09:42:57;;;;;;;3.28;2.97;;;;;;;24.48;72.49;65573.97;5012322;28;20700;-53
2023/08/06 09:45:23;;;;;;;3.58;2.92;;;;;;;24.67;66.93;65595.59;5012281;28;20217;-51
2023/08/06 09:47:50;;;;;;;2.72;2.53;;;;;;;24.56;66.76;65585.97;5029723;28;20230;-52
2023/08/06 09:50:20;;;;;;;2.97;2.55;;;;;;;24.45;63.16;65568.63;5029655;28;20208;-51
2023/08/06 09:52:47;;;;;;;2.00;1.90;;;;;;;24.16;61.18;65539.03;5031514;28;20214;-53
2023/08/06 09:55:14;;;;;;;3.28;1.80;;;;;;;24.08;61.14;65533.28;5033643;28;20202;-52
2023/08/06 09:57:43;;;;;;;2.28;2.08;;;;;;;24.00;62.42;65521.25;5033070;28;20230;-52
2023/08/06 10:00:10;;;;;;;4.40;2.20;;;;;;;24.08;63.18;65530.72;5033541;28;20206;-52
2023/08/06 10:02:40;;;;;;;6.65;6.00;;;;;;;24.13;64.13;65535.72;5033391;28;20276;-52
2023/08/06 10:05:07;;;;;;;5.97;2.72;;;;;;;24.08;63.81;65530.16;5015290;28;20285;-51
2023/08/06 10:07:33;;;;;;;5.05;2.17;;;;;;;24.09;62.05;65531.84;5033231;28;20217;-51
2023/08/06 10:10:00;;;;;;;1.90;1.80;;;;;;;23.92;61.42;65510.38;5033147;28;20236;-52
2023/08/06 10:12:34;;;;;;;2.50;2.30;;;;;;;23.94;62.24;65512.59;5033413;28;20276;-51
2023/08/06 10:15:10;;;;;;;3.35;2.50;;;;;;;24.06;63.17;65528.50;5033153;28;20581;-52
2023/08/06 10:17:38;;;;;;;2.75;2.47;;;;;;;24.02;63.20;65523.47;5033486;28;20213;-56
2023/08/06 10:20:07;;;;;;;4.93;2.25;;;;;;;24.60;61.58;65589.84;5015152;28;20271;-52
2023/08/06 10:22:33;;;;;;;2.40;2.13;;;;;;;24.69;61.35;65592.66;5015252;28;20206;-53
2023/08/06 10:25:05;;;;;;;2.38;2.10;;;;;;;24.63;61.28;65591.16;5032808;28;20290;-53
2023/08/06 10:27:53;;;;;;;1.85;1.67;;;;;;;24.17;62.59;65542.72;5032933;28;20229;-52
2023/08/06 10:30:24;;;;;;;2.83;1.73;;;;;;;24.17;62.93;65540.69;5032901;28;20226;-52
2023/08/06 10:32:53;;;;;;;2.25;2.00;;;;;;;24.31;61.80;65553.09;5033318;28;20210;-54
2023/08/06 10:35:44;;;;;;;2.45;2.10;;;;;;;24.47;60.58;65575.41;5014871;28;20213;-53
2023/08/06 10:38:16;;;;;;;2.22;2.03;;;;;;;24.35;58.67;65557.53;5032864;28;20232;-53
2023/08/06 10:41:02;;;;;;;4.22;2.20;;;;;;;24.06;59.54;65525.34;5032703;28;20665;-53
2023/08/06 10:43:41;;;;;;;2.30;2.17;;;;;;;23.97;60.95;65517.94;5032375;28;20220;-53
2023/08/06 10:46:22;;;;;;;3.90;2.00;;;;;;;23.88;62.13;65508.53;5014596;28;20560;-52
2023/08/06 10:48:47;;;;;;;2.00;1.77;;;;;;;23.84;65.16;65501.50;5032454;28;20205;-54
2023/08/06 10:51:14;;;;;;;3.45;2.45;;;;;;;23.81;67.18;65503.34;5032736;28;20317;-53
2023/08/06 10:53:50;;;;;;;4.07;2.92;;;;;;;23.79;68.39;65495.41;5032843;28;20210;-54
2023/08/06 10:56:22;;;;;;;3.58;2.42;;;;;;;23.76;67.43;65495.22;5032287;28;20232;-53
2023/08/06 10:58:49;;;;;;;2.28;2.03;;;;;;;23.64;68.73;65478.78;5032395;28;20295;-53
2023/08/06 11:01:15;;;;;;;2.08;1.90;;;;;;;23.71;68.83;65489.69;5032338;28;20222;-54
2023/08/06 11:03:41;;;;;;;3.33;2.30;;;;;;;23.69;69.64;65484.34;5032070;28;20225;-53
2023/08/06 11:06:08;;;;;;;4.30;3.08;;;;;;;23.74;69.93;65495.03;5032223;28;20218;-53
2023/08/06 11:08:35;;;;;;;3.88;2.60;;;;;;;23.73;68.34;65488.78;5032303;28;20205;-53
2023/08/06 11:11:12;;;;;;;4.10;2.85;;;;;;;23.98;68.44;65516.47;5032355;28;20271;-53
2023/08/06 11:13:46;;;;;;;2.47;2.28;;;;;;;23.99;67.91;65520.16;5032560;28;20202;-53
2023/08/06 11:16:13;;;;;;;5.63;3.10;;;;;;;24.35;67.55;65557.53;5031816;28;20240;-53
2023/08/06 11:18:41;;;;;;;2.50;2.28;;;;;;;24.91;65.67;65619.09;5014283;28;20621;-54
2023/08/06 11:21:07;;;;;;;3.55;2.42;;;;;;;25.56;64.20;65690.69;5032319;28;20210;-53
2023/08/06 11:23:35;;;;;;;2.65;2.40;;;;;;;26.48;60.83;65790.28;5032139;28;20264;-53
2023/08/06 11:26:01;;;;;;;4.75;3.60;;;;;;;26.18;59.67;65759.03;5032043;28;20267;-52
2023/08/06 11:28:26;;;;;;;4.63;2.92;;;;;;;24.97;62.44;65625.75;5032072;28;20652;-53